Weather observations for the past three days for
Lajitas International Airport
Imperial (Metric)
Date Time (cdt) Wind (mph) Vis. (mi.) Weather Sky Cond. Temperature (ºF) Relative Humidity Wind Chill (°F) Heat Index (°F) Pressure Precipitation (in)
Air Dwpt 6 hour altimeter (in) sea level (mb) 1 hr 3 hr 6 hr
Max. Min.
06 07:35 Calm 10.00 Fair CLR 73.4 32 22% 29.88 0.0
06 07:15 Calm 10.00 Fair CLR 71.6 32 23% 29.87 0.0
06 06:55 Calm 10.00 Fair CLR 73.4 32 22% 29.86 0.0
06 06:35 Calm 10.00 Fair CLR 75.2 32 21% 76 29.85 0.0
06 06:15 Calm 10.00 Partly Cloudy FEW037 SCT045 75.2 32 21% 76 29.85 0.0
06 05:55 Calm 10.00 Mostly Cloudy FEW029 SCT037 BKN045 77 32 19% 77 29.84 0.0
06 05:35 Calm 10.00 A Few Clouds FEW045 FEW050 75.2 32 21% 76 29.84 0.0
06 05:15 Calm 10.00 Fair CLR 75.2 32 21% 76 29.83 0.0
06 04:55 W 5 10.00 Fair CLR 77 32 19% 77 29.83 0.0
06 04:35 W 6 10.00 Fair CLR 78.8 32 18% 78 29.83 0.0
06 04:15 Calm 10.00 Fair CLR 80.6 35.6 20% 79 29.82 0.0
06 03:55 Calm 10.00 Fair CLR 78.8 35.6 21% 78 29.82 0.0
06 03:35 NW 5 10.00 Fair CLR 78.8 33.8 20% 78 29.81 0.0
06 03:15 NW 6 10.00 Fair CLR 75.2 30.2 19% 76 29.82 0.0
06 02:55 NW 6 10.00 Fair CLR 77 30.2 18% 77 29.81 0.0
06 02:35 Calm 10.00 Fair CLR 78.8 32 18% 78 29.81 0.0
06 02:15 Calm 10.00 Fair CLR 80.6 30.2 16% 79 29.81 0.0
06 01:55 Calm 10.00 Fair CLR 80.6 30.2 16% 79 29.81 0.0
06 01:35 Calm 10.00 Fair CLR 82.4 30.2 15% 80 29.81 0.0
06 01:15 Vrbl 5 10.00 Fair CLR 82.4 30.2 15% 80 29.81 0.0
06 00:55 Calm 10.00 Fair CLR 82.4 28.4 14% 80 29.81 0.0
06 00:35 NE 10 10.00 Fair CLR 84.2 28.4 13% 81 29.81 0.0
06 00:15 NE 9 10.00 Fair CLR 84.2 26.6 12% 81 29.81 0.0
05 23:55 NE 12 10.00 Fair CLR 84.2 26.6 12% 81 29.81 0.0
05 23:35 NE 9 10.00 Fair CLR 84.2 26.6 12% 81 29.8 0.0
05 23:15 N 9 10.00 Fair CLR 86 26.6 11% 83 29.8 0.0
05 22:55 Calm 10.00 Fair CLR 86 26.6 11% 83 29.8 0.0
05 22:35 NW 7 G 16 10.00 Fair CLR 86 26.6 11% 83 29.78 0.0
05 22:15 N 10 G 18 10.00 Fair CLR 86 26.6 11% 83 29.76 0.0
05 21:55 N 14 10.00 Fair CLR 86 23 10% 83 29.75 0.0
05 21:35 NW 9 10.00 Fair CLR 84.2 21.2 10% 81 29.73 0.0
05 21:15 N 6 10.00 Fair CLR 86 21.2 9% 83 29.72 0.0
05 20:55 NW 6 10.00 Fair CLR 87.8 21.2 9% 84 29.7 0.0
05 20:35 N 5 10.00 Fair CLR 91.4 21.2 8% 87 29.69 0.0
05 20:15 NW 6 10.00 Fair CLR 93.2 21.2 7% 89 29.68 0.0
05 19:55 N 7 10.00 Fair CLR 95 23 7% 90 29.68 0.0
05 19:35 N 6 G 13 10.00 Fair CLR 95 23 7% 90 29.68 0.0
05 19:15 NW 8 10.00 Fair CLR 96.8 23 7% 92 29.68 0.0
05 18:55 W 9 10.00 Fair CLR 96.8 23 7% 92 29.68 0.0
05 18:35 N 5 10.00 Fair CLR 96.8 24.8 7% 92 29.68 0.0
05 18:15 N 8 G 15 10.00 Fair CLR 98.6 24.8 7% 93 29.68 0.0
05 17:55 Calm 10.00 Fair CLR 96.8 24.8 7% 92 29.68 0.0
05 17:35 Calm 10.00 Fair CLR 96.8 24.8 7% 92 29.69 0.0
05 17:15 N 9 10.00 Fair CLR 96.8 26.6 8% 92 29.7 0.0
05 16:55 Vrbl 5 10.00 Fair CLR 96.8 26.6 8% 92 29.71 0.0
05 16:30 NW 9 G 16 10.00 Fair CLR 96.8 26.6 8% 92 29.72 0.0
05 16:15 Calm 10.00 Fair CLR 95 26.6 9% 90 29.73 0.0
05 15:55 NW 6 10.00 Fair CLR 95 28.4 9% 90 29.74 0.0
05 15:35 Calm 10.00 Fair CLR 95 28.4 9% 90 29.75 0.0
05 15:15 Vrbl 6 G 15 10.00 Fair CLR 95 28.4 9% 90 29.76 0.0
05 14:55 Vrbl 5 10.00 Fair CLR 95 28.4 9% 90 29.77 0.0
05 14:35 W 9 G 17 10.00 Fair CLR 95 28.4 9% 90 29.78 0.0
05 14:15 Vrbl 5 10.00 Fair CLR 93.2 28.4 10% 89 29.78 0.0
05 13:55 W 10 G 16 10.00 Fair CLR 93.2 28.4 10% 89 29.79 0.0
05 13:35 NW 8 G 15 10.00 Fair CLR 93.2 28.4 10% 89 29.8 0.0
05 13:15 NW 6 10.00 Fair CLR 91.4 28.4 10% 87 29.81 0.0
05 12:55 W 8 G 15 10.00 Fair CLR 91.4 30.2 11% 87 29.82 0.0
05 12:35 W 12 10.00 Fair CLR 91.4 30.2 11% 87 29.82 0.0
05 12:15 Vrbl 3 G 12 10.00 Fair CLR 89.6 30.2 12% 86 29.83 0.0
05 11:55 Calm 10.00 Fair CLR 89.6 32 13% 86 29.84 0.0
05 11:35 Calm 10.00 Fair CLR 87.8 32 13% 84 29.84 0.0
05 11:15 Vrbl 5 10.00 Fair CLR 87.8 32 13% 84 29.84 0.0
05 10:55 Vrbl 5 10.00 Fair CLR 86 30.2 13% 83 29.84 0.0
05 10:35 W 6 10.00 Fair CLR 86 32 14% 83 29.84 0.0
05 10:15 W 6 10.00 Fair CLR 82.4 35.6 19% 80 29.84 0.0
05 09:55 W 6 10.00 Fair CLR 80.6 35.6 20% 79 29.84 0.0
05 09:35 W 5 10.00 Fair CLR 78.8 35.6 21% 78 29.83 0.0
05 09:15 NW 3 10.00 Fair CLR 77 35.6 22% 77 29.83 0.0
05 08:55 NW 5 10.00 Fair CLR 73.4 35.6 25% 29.83 0.0
05 08:35 NW 3 10.00 Fair CLR 73.4 37.4 27% 29.83 0.0
05 08:15 NW 3 10.00 Fair CLR 69.8 35.6 29% 29.82 0.0
05 07:55 W 3 10.00 Fair CLR 68 33.8 28% 29.81 0.0
05 07:35 NW 5 10.00 Fair CLR 68 33.8 28% 29.8 0.0
05 07:15 N 5 10.00 A Few Clouds FEW048 66.2 32 28% 29.79 0.0
05 06:55 Calm 10.00 Mostly Cloudy SCT042 BKN050 66.2 33.8 30% 29.79 0.0
05 06:35 Calm 10.00 Overcast BKN042 OVC050 69.8 35.6 29% 29.78 0.0
05 06:15 NW 3 10.00 Mostly Cloudy BKN048 66.2 33.8 30% 29.78 0.0
05 05:55 NW 6 10.00 A Few Clouds FEW044 FEW050 FEW085 68 35.6 30% 29.78 0.0
05 05:30 W 6 10.00 Fair CLR 73.4 37.4 27% 29.77 0.0
05 05:15 N 5 10.00 Fair CLR 68 33.8 28% 29.78 0.0
05 04:55 W 3 10.00 Fair CLR 71.6 35.6 27% 29.77 0.0
05 04:35 N 3 10.00 Fair CLR 68 33.8 28% 29.77 0.0
05 04:15 Calm 10.00 Fair CLR 71.6 35.6 27% 29.76 0.0
05 03:55 Calm 10.00 Fair CLR 75.2 35.6 24% 76 29.76 0.0
05 03:35 Calm 10.00 Fair CLR 73.4 35.6 25% 29.76 0.0
05 03:15 Calm 10.00 Fair CLR 73.4 35.6 25% 29.76 0.0
05 02:55 Calm 10.00 Fair CLR 73.4 35.6 25% 29.77 0.0
05 02:35 Calm 10.00 Fair CLR 75.2 35.6 24% 76 29.77 0.0
05 02:15 Calm 10.00 Fair CLR 78.8 35.6 21% 78 29.77 0.0
05 01:55 NW 5 10.00 Fair CLR 77 35.6 22% 77 29.78 0.0
05 01:35 Calm 10.00 Fair CLR 78.8 35.6 21% 78 29.78 0.0
05 01:10 Calm 10.00 Fair CLR 77 35.6 22% 77 29.78 0.0
05 00:55 W 3 10.00 Fair CLR 82.4 35.6 19% 80 29.78 0.0
05 00:35 Vrbl 5 10.00 Fair CLR 78.8 35.6 21% 78 29.78 0.0
05 00:15 NW 6 10.00 Fair CLR 77 35.6 22% 77 29.78 0.0
04 23:55 Calm 10.00 Fair CLR 78.8 35.6 21% 78 29.78 0.0
04 23:35 NE 3 10.00 Fair CLR 80.6 35.6 20% 79 29.78 0.0
04 23:15 E 5 10.00 Fair CLR 82.4 35.6 19% 80 29.78 0.0
04 22:55 Calm 10.00 Fair CLR 84.2 35.6 18% 81 29.78 0.0
04 22:35 Calm 10.00 Fair CLR 86 35.6 17% 83 29.77 0.0
04 22:15 Calm 10.00 Fair CLR 84.2 35.6 18% 81 29.77 0.0
04 21:55 Calm 10.00 Fair CLR 87.8 35.6 16% 84 29.77 0.0
04 21:35 SE 3 10.00 Fair CLR 87.8 35.6 16% 84 29.76 0.0
04 21:15 NE 7 10.00 Fair CLR 86 35.6 17% 83 29.75 0.0
04 20:55 NE 6 10.00 Fair CLR 87.8 35.6 16% 84 29.75 0.0
04 20:35 N 3 10.00 Fair CLR 91.4 35.6 14% 87 29.75 0.0
04 20:15 N 6 10.00 Fair CLR 91.4 35.6 14% 87 29.75 0.0
04 19:55 N 6 G 13 10.00 Fair CLR 93.2 33.8 12% 89 29.75 0.0
04 19:35 N 7 G 14 10.00 Fair CLR 93.2 33.8 12% 89 29.76 0.0
04 19:15 NW 10 G 18 10.00 Fair CLR 93.2 32 11% 89 29.76 0.0
04 18:55 NW 9 G 17 10.00 Fair CLR 95 32 11% 90 29.76 0.0
04 18:35 NW 7 G 15 10.00 Fair CLR 95 32 11% 90 29.76 0.0
04 18:15 Vrbl 7 G 15 10.00 Fair CLR 96.8 28.4 9% 92 29.77 0.0
04 17:55 N 9 10.00 Fair CLR 96.8 26.6 8% 92 29.77 0.0
04 17:35 Vrbl 5 10.00 Fair CLR 95 33.8 11% 90 29.77 0.0
04 17:15 Calm 10.00 Fair CLR 95 35.6 12% 90 29.78 0.0
04 16:35 Vrbl 3 10.00 Fair CLR 95 42.8 16% 91 29.79 0.0
04 16:15 Calm 10.00 Fair CLR 93.2 42.8 17% 89 29.8 0.0
04 15:55 SE 5 10.00 Fair CLR 91.4 42.8 18% 88 29.81 0.0
04 15:35 NE 6 10.00 Fair CLR 91.4 42.8 18% 88 29.83 0.0
04 15:15 S 7 10.00 Fair CLR 91.4 44.6 20% 88 29.83 0.0
04 14:55 Calm 10.00 Fair CLR 89.6 44.6 21% 86 29.85 0.0
04 14:35 SE 5 10.00 Fair CLR 89.6 44.6 21% 86 29.86 0.0
04 14:15 Vrbl 3 10.00 Fair CLR 87.8 46.4 24% 85 29.87 0.0
04 13:55 S 5 10.00 Fair CLR 86 46.4 25% 83 29.88 0.0
04 13:35 Calm 10.00 Fair CLR 86 46.4 25% 83 29.89 0.0
04 13:15 Calm 10.00 Fair CLR 84.2 46.4 27% 82 29.9 0.0
04 12:55 Calm 10.00 Fair CLR 82.4 48.2 30% 81 29.91 0.0
04 12:35 Vrbl 5 10.00 Fair CLR 82.4 48.2 30% 81 29.91 0.0
04 12:15 E 7 10.00 Fair CLR 80.6 48.2 32% 80 29.92 0.0
04 11:55 E 8 10.00 Fair CLR 80.6 48.2 32% 80 29.93 0.0
04 11:35 SE 10 10.00 Fair CLR 78.8 48.2 34% 79 29.93 0.0
04 10:55 E 10 10.00 Fair CLR 77 48.2 36% 78 29.93 0.0
04 10:35 E 10 10.00 Fair CLR 75.2 48.2 39% 77 29.93 0.0
04 10:15 SE 7 10.00 Fair CLR 75.2 48.2 39% 77 29.93 0.0
04 09:55 E 7 10.00 Fair CLR 73.4 48.2 41% 29.93 0.0
04 09:35 SE 7 10.00 Fair CLR 71.6 48.2 44% 29.93 0.0
04 09:15 E 6 10.00 Fair CLR 71.6 48.2 44% 29.92 0.0
04 08:55 E 6 10.00 Fair CLR 69.8 48.2 46% 29.92 0.0
04 08:35 E 6 10.00 Fair CLR 68 48.2 49% 29.92 0.0
04 08:15 Calm 10.00 Fair CLR 66.2 48.2 52% 29.91 0.0
04 07:55 Calm 10.00 Fair CLR 66.2 46.4 49% 29.91 0.0
04 07:35 Calm 10.00 Fair CLR 66.2 46.4 49% 29.91 0.0
04 07:15 E 6 10.00 Fair CLR 66.2 46.4 49% 29.9 0.0
04 06:55 NE 7 10.00 Fair CLR 66.2 46.4 49% 29.9 0.0
04 06:35 E 7 10.00 A Few Clouds FEW055 66.2 46.4 49% 29.9 0.0
04 06:15 NE 7 10.00 A Few Clouds FEW055 66.2 46.4 49% 29.9 0.0
04 05:55 NE 8 10.00 A Few Clouds FEW055 66.2 46.4 49% 29.9 0.0
04 05:35 E 8 10.00 Fair CLR 66.2 46.4 49% 29.89 0.0
04 05:15 E 6 10.00 Fair CLR 66.2 46.4 49% 29.9 0.0
04 04:50 E 7 10.00 A Few Clouds FEW055 68 46.4 46% 29.9 0.0
04 04:35 E 8 10.00 Fair CLR 68 46.4 46% 29.9 0.0
04 04:15 E 7 10.00 Fair CLR 68 46.4 46% 29.91 0.0
04 03:55 E 8 10.00 Fair CLR 68 46.4 46% 29.91 0.0
04 03:35 E 7 10.00 Fair CLR 69.8 46.4 43% 29.91 0.0
04 03:15 E 7 10.00 Fair CLR 69.8 46.4 43% 29.91 0.0
04 02:55 SE 8 10.00 Fair CLR 71.6 46.4 41% 29.92 0.0
04 02:35 SE 8 10.00 Fair CLR 71.6 46.4 41% 29.93 0.0
04 02:15 SE 9 G 16 10.00 Fair CLR 73.4 46.4 38% 29.93 0.0
04 01:55 SE 8 10.00 Fair CLR 71.6 46.4 41% 29.93 0.0
04 01:35 Vrbl 3 10.00 Fair CLR 71.6 46.4 41% 29.93 0.0
04 01:15 Calm 10.00 Fair CLR 71.6 46.4 41% 29.93 0.0
04 00:35 SE 6 10.00 Fair CLR 73.4 46.4 38% 29.94 0.0
04 00:15 NE 9 10.00 Fair CLR 75.2 46.4 36% 77 29.94 0.0
03 23:55 N 10 10.00 Fair CLR 75.2 46.4 36% 77 29.96 0.0
03 23:35 NE 9 10.00 A Few Clouds FEW065 FEW075 FEW090 77 46.4 34% 78 29.96 0.0
03 23:15 NE 12 10.00 Mostly Cloudy FEW050 FEW070 BKN080 77 46.4 34% 78 29.95 0.0
03 22:55 N 8 10.00 Mostly Cloudy FEW050 SCT070 BKN075 78.8 44.6 30% 79 29.97 0.0
03 22:35 NE 5 10.00 Mostly Cloudy FEW080 BKN110 78.8 42.8 28% 78 29.95 0.0
03 22:15 NE 8 10.00 A Few Clouds FEW120 78.8 41 26% 78 29.94 0.0
03 21:55 NE 6 10.00 Fair CLR 78.8 41 26% 78 29.93 0.0
03 21:35 NE 8 10.00 Fair CLR 80.6 41 24% 79 29.92 0.0
03 21:15 E 7 10.00 Fair CLR 80.6 41 24% 79 29.91 0.0
03 20:55 E 8 10.00 Fair CLR 80.6 41 24% 79 29.9 0.0
03 20:35 E 7 10.00 Fair CLR 82.4 41 23% 80 29.91 0.0
03 20:15 SE 3 10.00 Fair CLR 84.2 41 22% 82 29.91 0.0
03 19:55 E 3 10.00 Fair CLR 84.2 41 22% 82 29.92 0.0
03 19:35 E 3 10.00 Fair CLR 84.2 41 22% 82 29.93 0.0
03 19:15 Vrbl 5 10.00 Fair CLR 84.2 41 22% 82 29.92 0.0
03 18:55 E 5 10.00 Fair CLR 84.2 41 22% 82 29.92 0.0
03 18:35 E 6 G 14 10.00 Fair CLR 86 41 20% 83 29.92 0.0
03 18:15 E 9 10.00 Fair CLR 86 41 20% 83 29.93 0.0
03 17:55 E 3 G 13 10.00 Fair CLR 84.2 41 22% 82 29.94 0.0
03 17:35 E 9 10.00 Fair CLR 84.2 41 22% 82 29.94 0.0
03 17:15 Calm 10.00 Fair CLR 82.4 41 23% 80 29.95 0.0
03 16:55 Vrbl 6 10.00 Fair CLR 84.2 41 22% 82 29.96 0.0
03 16:35 E 9 10.00 Fair CLR 84.2 41 22% 82 29.97 0.0
03 16:15 Vrbl 6 10.00 Fair CLR 82.4 42.8 25% 80 29.98 0.0
03 15:55 SE 6 10.00 Fair CLR 82.4 42.8 25% 80 30 0.0
03 15:35 Vrbl 6 10.00 Fair CLR 80.6 42.8 26% 79 30.01 0.0
03 15:15 SE 8 10.00 Fair CLR 80.6 42.8 26% 79 30.02 0.0
03 14:55 SE 8 G 15 10.00 Fair CLR 80.6 42.8 26% 79 30.03 0.0
03 14:35 S 9 10.00 Fair CLR 78.8 42.8 28% 78 30.05 0.0
03 14:15 Vrbl 7 G 16 10.00 Fair CLR 78.8 42.8 28% 78 30.07 0.0
03 13:55 Vrbl 5 10.00 Fair CLR 77 42.8 30% 78 30.08 0.0
03 13:35 Vrbl 6 G 14 10.00 Fair CLR 77 42.8 30% 78 30.1 0.0
03 13:15 E 9 10.00 Fair CLR 75.2 42.8 31% 77 30.11 0.0
03 12:55 SE 10 G 17 10.00 Fair CLR 77 42.8 30% 78 30.11 0.0
03 12:35 E 8 G 17 10.00 Fair CLR 75.2 42.8 31% 77 30.13 0.0
03 12:15 SE 13 10.00 Fair CLR 73.4 42.8 33% 30.14 0.0
03 11:55 Vrbl 7 G 16 10.00 Fair CLR 73.4 42.8 33% 30.16 0.0
03 11:35 SE 13 10.00 Fair CLR 71.6 42.8 36% 30.17 0.0
03 11:15 SE 13 10.00 A Few Clouds FEW110 71.6 42.8 36% 30.18 0.0
03 10:55 SE 12 G 17 10.00 Partly Cloudy SCT110 71.6 42.8 36% 30.18 0.0
03 10:35 E 10 10.00 Partly Cloudy SCT110 69.8 42.8 38% 30.19 0.0
03 10:15 SE 9 10.00 Fair CLR 68 42.8 40% 30.19 0.0
03 09:55 SE 9 G 16 10.00 Fair CLR 68 42.8 40% 30.18 0.0
03 09:35 E 10 10.00 Fair CLR 66.2 42.8 43% 30.17 0.0
03 09:15 E 8 10.00 Fair CLR 64.4 44.6 49% 30.17 0.0
03 08:55 E 5 10.00 Mostly Cloudy BKN100 64.4 44.6 49% 30.18 0.0
03 08:35 E 5 10.00 Mostly Cloudy BKN100 62.6 44.6 52% 30.17 0.0
03 08:15 E 5 10.00 Partly Cloudy SCT100 SCT120 62.6 44.6 52% 30.16 0.0
03 07:55 E 5 10.00 Mostly Cloudy BKN100 BKN120 60.8 46.4 59% 30.16 0.0
Date Time (cdt) Wind (mph) Vis. (mi.) Weather Sky Cond. Air Dwpt Max. Min. Relative Humidity Wind Chill (°F) Heat Index (°F) altimeter (in) sea level (mb) 1 hr 3 hr 6 hr
6 hour
Temperature (ºF) Pressure Precipitation (in)